Time;durP1;ratioP1;P1;durP2;ratioP2;P2;SDS_P1;SDS_P2;PMS_P1;PMS_P2;Temp;Humidity;BMP_temperature;BMP_pressure;BME280_temperature;BME280_humidity;BME280_pressure;Samples;Min_cycle;Max_cycle;Signal;HPM_P1;HPM_P2
2021/03/04 00:00:21;;;;;;;;;;;2.40;99.90;;;;;;5094137;28;20295;-61
2021/03/04 00:02:47;;;;;;;;;;;2.40;99.90;;;;;;5094704;28;19912;-61
2021/03/04 00:05:13;;;;;;;;;;;2.40;99.90;;;;;;5094554;28;19964;-61
2021/03/04 00:07:40;;;;;;;;;;;2.30;99.90;;;;;;5093296;28;19919;-60
2021/03/04 00:10:06;;;;;;;;;;;2.30;99.90;;;;;;5076172;28;19921;-61
2021/03/04 00:12:32;;;;;;;;;;;2.20;99.90;;;;;;5094240;28;20381;-61
2021/03/04 00:14:58;;;;;;;;;;;2.10;99.90;;;;;;5094602;28;19924;-61
2021/03/04 00:17:24;;;;;;;;;;;2.10;99.90;;;;;;5076386;28;20342;-61
2021/03/04 00:19:50;;;;;;;;;;;2.00;99.90;;;;;;5092629;28;19920;-61
2021/03/04 00:22:16;;;;;;;;;;;2.00;99.90;;;;;;5094301;28;19912;-60
2021/03/04 00:24:42;;;;;;;;;;;1.90;99.90;;;;;;5094017;28;19917;-61
2021/03/04 00:27:08;;;;;;;;;;;1.90;99.90;;;;;;5094253;28;19920;-61
2021/03/04 00:29:34;;;;;;;;;;;1.90;99.90;;;;;;5093801;28;19924;-61
2021/03/04 00:32:00;;;;;;;;;;;1.90;99.90;;;;;;5094266;28;19958;-61
2021/03/04 00:34:26;;;;;;;;;;;1.80;99.90;;;;;;5093167;28;19916;-60
2021/03/04 00:36:52;;;;;;;;;;;1.80;99.90;;;;;;5093607;28;19916;-60
2021/03/04 00:39:18;;;;;;;;;;;1.80;99.90;;;;;;5093745;28;20319;-60
2021/03/04 00:41:44;;;;;;;;;;;1.70;99.90;;;;;;5093771;28;20399;-60
2021/03/04 00:44:09;;;;;;;;;;;1.60;99.90;;;;;;5093898;28;19916;-61
2021/03/04 00:46:35;;;;;;;;;;;1.60;99.90;;;;;;5093756;28;19920;-60
2021/03/04 00:49:02;;;;;;;;;;;1.60;99.90;;;;;;5093997;28;19952;-61
2021/03/04 00:51:28;;;;;;;;;;;1.60;99.90;;;;;;5074719;28;19924;-61
2021/03/04 00:53:54;;;;;;;;;;;1.70;99.90;;;;;;5093821;28;19916;-60
2021/03/04 00:56:20;;;;;;;;;;;1.80;99.90;;;;;;5093264;28;19912;-61
2021/03/04 00:58:46;;;;;;;;;;;1.70;99.90;;;;;;5093871;28;19938;-61
2021/03/04 01:01:12;;;;;;;;;;;1.80;99.90;;;;;;5093677;28;19916;-61
2021/03/04 01:03:38;;;;;;;;;;;1.80;99.90;;;;;;5093238;28;19916;-60
2021/03/04 01:06:04;;;;;;;;;;;1.80;99.90;;;;;;5075022;28;19999;-60
2021/03/04 01:08:30;;;;;;;;;;;1.90;99.90;;;;;;5093374;28;19975;-61
2021/03/04 01:10:56;;;;;;;;;;;1.90;99.90;;;;;;5093319;28;19927;-61
2021/03/04 01:13:22;;;;;;;;;;;1.90;99.90;;;;;;5093111;28;19922;-61
2021/03/04 01:15:48;;;;;;;;;;;1.90;99.90;;;;;;5075268;28;20120;-61
2021/03/04 01:18:14;;;;;;;;;;;1.90;99.90;;;;;;5092904;28;19916;-61
2021/03/04 01:20:40;;;;;;;;;;;1.90;99.90;;;;;;5092954;28;19916;-61
2021/03/04 01:23:06;;;;;;;;;;;2.00;99.90;;;;;;5093178;28;19920;-61
2021/03/04 01:25:32;;;;;;;;;;;2.00;99.80;;;;;;5093196;28;19916;-61
2021/03/04 01:27:58;;;;;;;;;;;2.00;99.80;;;;;;5093687;28;20321;-61
2021/03/04 01:30:27;;;;;;;;;;;2.10;99.60;;;;;;5092546;28;20345;-61
2021/03/04 01:32:53;;;;;;;;;;;2.10;99.30;;;;;;5075212;28;19920;-61
2021/03/04 01:35:19;;;;;;;;;;;2.10;99.20;;;;;;5074598;28;19939;-61
2021/03/04 01:37:45;;;;;;;;;;;2.10;99.30;;;;;;5093152;28;19916;-61
2021/03/04 01:40:18;;;;;;;;;;;2.10;99.30;;;;;;5092472;28;19948;-61
2021/03/04 01:42:43;;;;;;;;;;;2.20;99.30;;;;;;5092583;28;19916;-60
2021/03/04 01:45:10;;;;;;;;;;;2.10;98.90;;;;;;5093073;28;19969;-61
2021/03/04 01:47:36;;;;;;;;;;;2.10;98.90;;;;;;5074413;28;19915;-61
2021/03/04 01:50:03;;;;;;;;;;;2.10;99.10;;;;;;5074258;28;20372;-61
2021/03/04 01:52:29;;;;;;;;;;;2.10;99.00;;;;;;5074284;28;20293;-61
2021/03/04 01:54:55;;;;;;;;;;;2.10;99.00;;;;;;5074593;28;19912;-61
2021/03/04 01:57:21;;;;;;;;;;;2.00;98.80;;;;;;5092914;28;19916;-61
2021/03/04 01:59:47;;;;;;;;;;;2.00;98.60;;;;;;5074426;28;19927;-61
2021/03/04 02:02:13;;;;;;;;;;;2.00;99.00;;;;;;5092443;28;19958;-61
2021/03/04 02:04:39;;;;;;;;;;;1.90;98.90;;;;;;5092496;28;19920;-61
2021/03/04 02:07:09;;;;;;;;;;;2.00;98.90;;;;;;5092225;28;19923;-61
2021/03/04 02:09:35;;;;;;;;;;;1.90;98.50;;;;;;5074153;28;20353;-60
2021/03/04 02:12:09;;;;;;;;;;;2.00;98.40;;;;;;5071215;28;19970;-61
2021/03/04 02:14:53;;;;;;;;;;;1.90;98.30;;;;;;5074326;28;20408;-61
2021/03/04 02:17:19;;;;;;;;;;;2.00;98.40;;;;;;5088533;28;20369;-61
2021/03/04 02:19:48;;;;;;;;;;;2.00;98.40;;;;;;5092029;28;19920;-60
2021/03/04 02:22:32;;;;;;;;;;;2.00;98.20;;;;;;5074580;28;19919;-61
2021/03/04 02:25:07;;;;;;;;;;;2.00;98.10;;;;;;5092176;28;20384;-60
2021/03/04 02:27:36;;;;;;;;;;;2.10;97.90;;;;;;5092499;28;19922;-61
2021/03/04 02:30:09;;;;;;;;;;;2.00;98.00;;;;;;5074111;28;20319;-60
2021/03/04 02:32:37;;;;;;;;;;;2.00;97.80;;;;;;5090751;28;19912;-61
2021/03/04 02:35:13;;;;;;;;;;;2.00;97.70;;;;;;5091132;28;19912;-60
2021/03/04 02:37:43;;;;;;;;;;;2.00;97.70;;;;;;5092233;28;19917;-61
2021/03/04 02:40:09;;;;;;;;;;;2.00;97.40;;;;;;5088131;28;19916;-61
2021/03/04 02:42:35;;;;;;;;;;;2.00;97.40;;;;;;5074283;28;19912;-60
2021/03/04 02:45:01;;;;;;;;;;;1.90;97.30;;;;;;5078344;28;19942;-61
2021/03/04 02:47:27;;;;;;;;;;;2.00;97.20;;;;;;5096168;28;19912;-60
2021/03/04 02:49:53;;;;;;;;;;;1.90;96.80;;;;;;5077856;28;20415;-61
2021/03/04 02:52:19;;;;;;;;;;;1.90;97.00;;;;;;5078140;28;19923;-60
2021/03/04 02:54:45;;;;;;;;;;;1.90;96.80;;;;;;5095786;28;19916;-61
2021/03/04 02:57:11;;;;;;;;;;;1.90;96.70;;;;;;5077232;28;19916;-61
2021/03/04 02:59:38;;;;;;;;;;;2.00;96.60;;;;;;5095878;28;19917;-61
2021/03/04 03:02:04;;;;;;;;;;;2.00;95.90;;;;;;5077290;28;19912;-60
2021/03/04 03:04:31;;;;;;;;;;;1.90;95.70;;;;;;5094745;28;19923;-60
2021/03/04 03:06:57;;;;;;;;;;;1.90;95.50;;;;;;5077989;28;19919;-60
2021/03/04 03:09:23;;;;;;;;;;;1.90;95.30;;;;;;5077708;28;19912;-60
2021/03/04 03:11:49;;;;;;;;;;;1.90;94.90;;;;;;5094946;28;20301;-61
2021/03/04 03:14:15;;;;;;;;;;;2.00;94.80;;;;;;5095228;28;19919;-61
2021/03/04 03:16:41;;;;;;;;;;;2.00;94.70;;;;;;5095158;28;19916;-61
2021/03/04 03:19:07;;;;;;;;;;;2.00;94.80;;;;;;5094720;28;19916;-61
2021/03/04 03:21:33;;;;;;;;;;;2.00;93.90;;;;;;5094998;28;19920;-60
2021/03/04 03:23:59;;;;;;;;;;;2.00;94.30;;;;;;5095744;28;19927;-60
2021/03/04 03:26:25;;;;;;;;;;;2.00;93.70;;;;;;5060159;28;20312;-60
2021/03/04 03:28:51;;;;;;;;;;;2.00;93.80;;;;;;5095665;28;19927;-61
2021/03/04 03:31:17;;;;;;;;;;;2.00;93.60;;;;;;5077333;28;19920;-61
2021/03/04 03:33:43;;;;;;;;;;;2.00;92.90;;;;;;5076999;28;19920;-61
2021/03/04 03:36:09;;;;;;;;;;;2.00;93.00;;;;;;5095315;28;19923;-61
2021/03/04 03:38:35;;;;;;;;;;;2.00;92.80;;;;;;5095019;28;20357;-60
2021/03/04 03:41:01;;;;;;;;;;;2.10;92.80;;;;;;5077107;28;19912;-60
2021/03/04 03:43:27;;;;;;;;;;;2.00;92.80;;;;;;5095210;28;20258;-60
2021/03/04 03:45:53;;;;;;;;;;;2.00;92.10;;;;;;5076765;28;19912;-60
2021/03/04 03:48:21;;;;;;;;;;;2.10;90.70;;;;;;5094905;28;20397;-60
2021/03/04 03:50:53;;;;;;;;;;;2.20;90.50;;;;;;5076690;28;19931;-60
2021/03/04 03:53:20;;;;;;;;;;;2.20;88.90;;;;;;5076948;28;19916;-61
2021/03/04 03:55:46;;;;;;;;;;;2.30;88.40;;;;;;5075611;28;19913;-60
2021/03/04 03:58:12;;;;;;;;;;;2.30;87.80;;;;;;5095135;28;19916;-61
2021/03/04 04:00:38;;;;;;;;;;;2.20;87.90;;;;;;5076537;28;19966;-61
2021/03/04 04:03:04;;;;;;;;;;;2.30;84.40;;;;;;5094539;28;19914;-61
2021/03/04 04:05:30;;;;;;;;;;;2.30;84.00;;;;;;5094541;28;20384;-61
2021/03/04 04:07:56;;;;;;;;;;;2.30;82.70;;;;;;5094459;28;19912;-61
2021/03/04 04:10:23;;;;;;;;;;;2.30;81.00;;;;;;5094317;28;19921;-61
2021/03/04 04:12:49;;;;;;;;;;;2.40;81.00;;;;;;5076181;28;19919;-61
2021/03/04 04:15:15;;;;;;;;;;;2.30;81.00;;;;;;5090141;28;20360;-60
2021/03/04 04:17:41;;;;;;;;;;;2.30;80.70;;;;;;5093834;28;20369;-60
2021/03/04 04:20:07;;;;;;;;;;;2.40;80.70;;;;;;5076518;28;19913;-60
2021/03/04 04:22:33;;;;;;;;;;;2.30;79.90;;;;;;5094186;28;19912;-61
2021/03/04 04:24:59;;;;;;;;;;;2.30;80.20;;;;;;5094086;28;19927;-61
2021/03/04 04:27:26;;;;;;;;;;;2.30;79.80;;;;;;5075591;28;19958;-61
2021/03/04 04:29:52;;;;;;;;;;;2.40;79.80;;;;;;5093868;28;19927;-60
2021/03/04 04:32:18;;;;;;;;;;;2.30;79.90;;;;;;5076303;28;19920;-60
2021/03/04 04:34:44;;;;;;;;;;;2.30;78.80;;;;;;5093993;28;19914;-60
2021/03/04 04:37:09;;;;;;;;;;;2.30;79.50;;;;;;5094122;28;19920;-61
2021/03/04 04:39:35;;;;;;;;;;;2.30;78.50;;;;;;5094034;28;19920;-60
2021/03/04 04:42:01;;;;;;;;;;;2.20;80.60;;;;;;5091911;28;19916;-60
2021/03/04 04:44:27;;;;;;;;;;;2.20;80.30;;;;;;5093795;28;19923;-61
2021/03/04 04:46:53;;;;;;;;;;;2.20;79.50;;;;;;5093852;28;19916;-61
2021/03/04 04:49:19;;;;;;;;;;;2.30;78.20;;;;;;5093903;28;19916;-61
2021/03/04 04:51:45;;;;;;;;;;;2.20;79.50;;;;;;5093565;28;20320;-60
2021/03/04 04:54:11;;;;;;;;;;;2.30;79.40;;;;;;5093672;28;19999;-61
2021/03/04 04:56:37;;;;;;;;;;;2.20;78.30;;;;;;5093306;28;19923;-61
2021/03/04 04:59:03;;;;;;;;;;;2.20;77.50;;;;;;5093549;28;19916;-61
2021/03/04 05:01:29;;;;;;;;;;;2.30;78.50;;;;;;5093694;28;20311;-60
2021/03/04 05:03:55;;;;;;;;;;;2.20;75.80;;;;;;5093537;28;19919;-61
2021/03/04 05:06:21;;;;;;;;;;;2.20;76.90;;;;;;5093206;28;19916;-60
2021/03/04 05:08:46;;;;;;;;;;;2.20;77.20;;;;;;5093332;28;19912;-61
2021/03/04 05:11:12;;;;;;;;;;;2.20;77.70;;;;;;5093538;28;20014;-61
2021/03/04 05:13:38;;;;;;;;;;;2.10;75.80;;;;;;5092982;28;20001;-60
2021/03/04 05:16:04;;;;;;;;;;;2.10;77.00;;;;;;5093000;28;19934;-60
2021/03/04 05:18:30;;;;;;;;;;;2.10;76.60;;;;;;5093335;28;19924;-61
2021/03/04 05:20:56;;;;;;;;;;;2.10;76.10;;;;;;5092880;28;21057;-60
2021/03/04 05:23:22;;;;;;;;;;;2.10;77.10;;;;;;5093131;28;19947;-61
2021/03/04 05:25:48;;;;;;;;;;;2.10;76.10;;;;;;5091037;28;19912;-61
2021/03/04 05:28:15;;;;;;;;;;;2.10;76.70;;;;;;5093207;28;19931;-61
2021/03/04 05:30:41;;;;;;;;;;;2.10;75.70;;;;;;5092956;28;19924;-61
2021/03/04 05:33:07;;;;;;;;;;;2.10;75.30;;;;;;5092866;28;19916;-60
2021/03/04 05:35:33;;;;;;;;;;;2.10;76.50;;;;;;5092370;28;19916;-61
2021/03/04 05:37:59;;;;;;;;;;;2.00;75.40;;;;;;5074250;28;19923;-60
2021/03/04 05:40:25;;;;;;;;;;;2.10;76.40;;;;;;5092384;28;19938;-61
2021/03/04 05:42:51;;;;;;;;;;;2.00;76.50;;;;;;5092007;28;20339;-61
2021/03/04 05:45:18;;;;;;;;;;;2.00;76.20;;;;;;5074969;28;20438;-61
2021/03/04 05:47:44;;;;;;;;;;;2.00;76.10;;;;;;5092599;28;19912;-61
2021/03/04 05:50:12;;;;;;;;;;;1.90;76.30;;;;;;5092594;28;19935;-60
2021/03/04 05:52:38;;;;;;;;;;;1.90;77.50;;;;;;5092756;28;19912;-61
2021/03/04 05:55:04;;;;;;;;;;;1.80;77.40;;;;;;5073705;28;19923;-61
2021/03/04 05:57:30;;;;;;;;;;;1.80;77.30;;;;;;5092633;28;19916;-60
2021/03/04 05:59:56;;;;;;;;;;;1.80;76.00;;;;;;5092487;28;19919;-61
2021/03/04 06:02:22;;;;;;;;;;;1.80;77.40;;;;;;5091923;28;19912;-60
2021/03/04 06:04:49;;;;;;;;;;;1.80;77.60;;;;;;5092907;28;19927;-60
2021/03/04 06:07:15;;;;;;;;;;;1.70;77.30;;;;;;5074101;28;20281;-60
2021/03/04 06:09:41;;;;;;;;;;;1.70;78.10;;;;;;5092323;28;19920;-61
2021/03/04 06:12:07;;;;;;;;;;;1.70;77.40;;;;;;5091697;28;19932;-60
2021/03/04 06:14:33;;;;;;;;;;;1.70;77.70;;;;;;5093110;28;19947;-61
2021/03/04 06:17:15;;;;;;;;;;;1.70;77.90;;;;;;5092351;28;20369;-60
2021/03/04 06:19:50;;;;;;;;;;;1.60;78.70;;;;;;5093901;28;19912;-60
2021/03/04 06:22:26;;;;;;;;;;;1.60;80.40;;;;;;5096404;28;19920;-61
2021/03/04 06:24:52;;;;;;;;;;;1.50;81.40;;;;;;5093238;28;19916;-61
2021/03/04 06:27:29;;;;;;;;;;;1.50;82.00;;;;;;5078197;28;19931;-60
2021/03/04 06:29:55;;;;;;;;;;;1.40;82.50;;;;;;5092312;28;19920;-60
2021/03/04 06:32:24;;;;;;;;;;;1.40;83.20;;;;;;5095745;28;19920;-60
2021/03/04 06:35:02;;;;;;;;;;;1.30;83.50;;;;;;5094649;28;19923;-61
2021/03/04 06:37:29;;;;;;;;;;;1.30;83.90;;;;;;5076792;28;19912;-60
2021/03/04 06:39:55;;;;;;;;;;;1.30;84.00;;;;;;5096434;28;19916;-60
2021/03/04 06:42:22;;;;;;;;;;;1.40;84.10;;;;;;5095834;28;19916;-61
2021/03/04 06:44:52;;;;;;;;;;;1.40;84.40;;;;;;5077134;28;19924;-60
2021/03/04 06:47:27;;;;;;;;;;;1.50;83.80;;;;;;5094920;28;19916;-60
2021/03/04 06:49:54;;;;;;;;;;;1.50;83.10;;;;;;5094447;28;19916;-60
2021/03/04 06:52:29;;;;;;;;;;;1.50;83.70;;;;;;5094914;28;19928;-61
2021/03/04 06:55:14;;;;;;;;;;;1.60;82.40;;;;;;5089280;28;19912;-60
2021/03/04 06:57:40;;;;;;;;;;;1.60;82.70;;;;;;5094374;28;19920;-60
2021/03/04 07:00:06;;;;;;;;;;;1.70;80.50;;;;;;5075774;28;19916;-60
2021/03/04 07:02:32;;;;;;;;;;;1.70;79.80;;;;;;5095338;28;20284;-60
2021/03/04 07:04:59;;;;;;;;;;;1.80;81.10;;;;;;5094499;28;19912;-60
2021/03/04 07:07:26;;;;;;;;;;;1.80;79.60;;;;;;5076232;28;19912;-60
2021/03/04 07:09:53;;;;;;;;;;;1.80;78.20;;;;;;5094563;28;19912;-60
2021/03/04 07:12:19;;;;;;;;;;;1.90;78.90;;;;;;5093468;28;19943;-60
2021/03/04 07:14:48;;;;;;;;;;;1.90;77.50;;;;;;5096153;28;19982;-60
2021/03/04 07:17:18;;;;;;;;;;;1.90;77.20;;;;;;5075981;28;20380;-61
2021/03/04 07:19:46;;;;;;;;;;;2.00;75.70;;;;;;5094175;28;19928;-61
2021/03/04 07:22:12;;;;;;;;;;;2.10;76.10;;;;;;5076185;28;19920;-61
2021/03/04 07:24:38;;;;;;;;;;;2.10;74.80;;;;;;5059550;28;19919;-60
2021/03/04 07:27:05;;;;;;;;;;;2.20;75.30;;;;;;5075588;28;19935;-61
2021/03/04 07:29:31;;;;;;;;;;;2.20;71.40;;;;;;5076145;28;19923;-61
2021/03/04 07:31:57;;;;;;;;;;;2.40;71.30;;;;;;5094226;28;20289;-60
2021/03/04 07:34:23;;;;;;;;;;;2.60;70.30;;;;;;5076318;28;19912;-60
2021/03/04 07:36:49;;;;;;;;;;;2.90;69.10;;;;;;5076829;28;19947;-60
2021/03/04 07:39:15;;;;;;;;;;;3.70;67.30;;;;;;5094668;28;19909;-61
2021/03/04 07:41:42;;;;;;;;;;;4.10;63.90;;;;;;5094618;28;19935;-60
2021/03/04 07:44:08;;;;;;;;;;;4.40;63.50;;;;;;5094672;28;19912;-60
2021/03/04 07:46:34;;;;;;;;;;;4.60;61.80;;;;;;5076553;28;20361;-60
2021/03/04 07:49:00;;;;;;;;;;;4.70;57.90;;;;;;5094770;28;19958;-61
2021/03/04 07:51:26;;;;;;;;;;;5.00;56.80;;;;;;5094382;28;20263;-61
2021/03/04 07:53:52;;;;;;;;;;;5.90;58.00;;;;;;5094349;28;19993;-61
2021/03/04 07:56:24;;;;;;;;;;;7.00;54.10;;;;;;5094445;28;20361;-61
2021/03/04 07:58:50;;;;;;;;;;;7.00;49.50;;;;;;5075468;28;19924;-61
2021/03/04 08:01:16;;;;;;;;;;;6.90;48.70;;;;;;5075804;28;19927;-61
2021/03/04 08:03:43;;;;;;;;;;;7.60;46.10;;;;;;5094541;28;20373;-61
2021/03/04 08:06:09;;;;;;;;;;;8.10;45.40;;;;;;5075842;28;19912;-61
2021/03/04 08:08:38;;;;;;;;;;;8.40;45.90;;;;;;5076038;28;20373;-61
2021/03/04 08:11:04;;;;;;;;;;;8.70;41.20;;;;;;5094025;28;19931;-61
2021/03/04 08:13:33;;;;;;;;;;;8.40;39.30;;;;;;5076102;28;19947;-61
2021/03/04 08:15:59;;;;;;;;;;;7.90;40.60;;;;;;5094360;28;19913;-61
2021/03/04 08:18:26;;;;;;;;;;;7.50;40.60;;;;;;5093948;28;19912;-61
2021/03/04 08:20:53;;;;;;;;;;;7.30;40.60;;;;;;5094051;28;19923;-61
2021/03/04 08:23:19;;;;;;;;;;;7.40;41.80;;;;;;5075690;28;19908;-61
2021/03/04 08:25:45;;;;;;;;;;;8.20;41.00;;;;;;5075993;28;19909;-61
2021/03/04 08:28:24;;;;;;;;;;;8.20;39.90;;;;;;5094106;28;19923;-61
2021/03/04 08:30:50;;;;;;;;;;;9.00;38.40;;;;;;5075032;28;19924;-61
2021/03/04 08:33:16;;;;;;;;;;;9.60;35.30;;;;;;5075013;28;20403;-61
2021/03/04 08:35:45;;;;;;;;;;;8.60;37.80;;;;;;5088280;28;19951;-62
2021/03/04 08:38:14;;;;;;;;;;;9.60;35.90;;;;;;5076090;28;19916;-62
2021/03/04 08:40:44;;;;;;;;;;;9.50;36.00;;;;;;5093861;28;19920;-62
2021/03/04 08:43:11;;;;;;;;;;;9.50;34.60;;;;;;5094653;28;20093;-62
2021/03/04 08:45:37;;;;;;;;;;;9.30;35.20;;;;;;5093224;28;19915;-61
2021/03/04 08:48:03;;;;;;;;;;;10.40;32.40;;;;;;5091446;28;19916;-61
2021/03/04 08:50:37;;;;;;;;;;;10.50;32.00;;;;;;5075835;28;20297;-62
2021/03/04 08:53:06;;;;;;;;;;;10.00;32.90;;;;;;5076065;28;19920;-61
2021/03/04 08:55:34;;;;;;;;;;;8.80;33.70;;;;;;5093849;28;19908;-62
2021/03/04 08:58:06;;;;;;;;;;;9.20;35.20;;;;;;5094322;28;19939;-61
2021/03/04 09:00:32;;;;;;;;;;;10.00;34.20;;;;;;5090321;28;19916;-62
2021/03/04 09:03:07;;;;;;;;;;;10.20;33.20;;;;;;5082263;28;19935;-61
2021/03/04 09:05:33;;;;;;;;;;;10.20;34.50;;;;;;5092876;28;19923;-62
2021/03/04 09:07:59;;;;;;;;;;;10.70;33.90;;;;;;5093659;28;19916;-62
2021/03/04 09:10:25;;;;;;;;;;;10.70;30.60;;;;;;5074592;28;19912;-61
2021/03/04 09:12:51;;;;;;;;;;;10.80;31.00;;;;;;5092924;28;19973;-61
2021/03/04 09:15:18;;;;;;;;;;;9.50;31.60;;;;;;5093164;28;19916;-62
2021/03/04 09:17:44;;;;;;;;;;;10.10;32.80;;;;;;5093434;28;19923;-61
2021/03/04 09:20:10;;;;;;;;;;;9.70;31.70;;;;;;5093240;28;19924;-61
2021/03/04 09:22:38;;;;;;;;;;;10.30;31.30;;;;;;5092017;28;20415;-61
2021/03/04 09:25:04;;;;;;;;;;;10.80;33.60;;;;;;5091796;28;19912;-61
2021/03/04 09:27:30;;;;;;;;;;;11.20;30.90;;;;;;5092566;28;20348;-62
2021/03/04 09:29:56;;;;;;;;;;;11.80;29.30;;;;;;5092535;28;19920;-61
2021/03/04 09:32:32;;;;;;;;;;;10.90;28.50;;;;;;5091344;28;19931;-61
2021/03/04 09:34:58;;;;;;;;;;;10.80;31.10;;;;;;5091855;28;19912;-62
2021/03/04 09:37:24;;;;;;;;;;;12.10;29.30;;;;;;5074322;28;19965;-61
2021/03/04 09:39:51;;;;;;;;;;;11.30;29.40;;;;;;5090036;28;19920;-62
2021/03/04 09:42:17;;;;;;;;;;;11.60;29.80;;;;;;5074266;28;20296;-61
2021/03/04 09:44:47;;;;;;;;;;;12.00;29.20;;;;;;5092416;28;19912;-61
2021/03/04 09:47:17;;;;;;;;;;;12.00;29.20;;;;;;5072674;28;19912;-61
2021/03/04 09:49:43;;;;;;;;;;;12.00;26.70;;;;;;5091925;28;19912;-61
2021/03/04 09:52:21;;;;;;;;;;;12.10;28.70;;;;;;5072087;28;19924;-61
2021/03/04 09:54:47;;;;;;;;;;;10.90;28.80;;;;;;5092684;28;19923;-61
2021/03/04 09:57:15;;;;;;;;;;;13.30;27.50;;;;;;5092730;28;19924;-62
2021/03/04 09:59:48;;;;;;;;;;;13.00;26.80;;;;;;5090967;28;19916;-62
2021/03/04 10:02:14;;;;;;;;;;;12.00;28.20;;;;;;5088139;28;20422;-62
2021/03/04 10:04:55;;;;;;;;;;;12.00;28.90;;;;;;5092702;28;19916;-62
2021/03/04 10:07:25;;;;;;;;;;;12.70;26.70;;;;;;5092660;28;19912;-62
2021/03/04 10:09:51;;;;;;;;;;;14.30;26.00;;;;;;5092642;28;19920;-61
2021/03/04 10:12:16;;;;;;;;;;;13.80;25.40;;;;;;5091879;28;19935;-62
2021/03/04 10:14:46;;;;;;;;;;;14.30;24.50;;;;;;5073478;28;19916;-61
2021/03/04 10:17:12;;;;;;;;;;;13.20;26.00;;;;;;5091886;28;19916;-62
2021/03/04 10:19:39;;;;;;;;;;;13.90;24.60;;;;;;5092525;28;19916;-62
2021/03/04 10:22:05;;;;;;;;;;;14.80;23.20;;;;;;5091515;28;19923;-62
2021/03/04 10:24:31;;;;;;;;;;;13.80;24.70;;;;;;5091338;28;19920;-62
2021/03/04 10:26:58;;;;;;;;;;;15.00;24.40;;;;;;5091711;28;20003;-62
2021/03/04 10:29:27;;;;;;;;;;;14.20;25.50;;;;;;5091205;28;19935;-62
2021/03/04 10:31:54;;;;;;;;;;;14.30;24.40;;;;;;5091735;28;19921;-61
2021/03/04 10:34:20;;;;;;;;;;;14.20;24.40;;;;;;5091007;28;19931;-61
2021/03/04 10:36:46;;;;;;;;;;;13.50;24.20;;;;;;5091162;28;19935;-62
2021/03/04 10:39:13;;;;;;;;;;;15.00;23.00;;;;;;5092556;28;20350;-62
2021/03/04 10:41:39;;;;;;;;;;;15.30;23.50;;;;;;5073266;28;19931;-59
2021/03/04 10:44:05;;;;;;;10.57;0.60;;;16.40;21.20;;;;;;5071595;28;20398;-59
2021/03/04 10:46:32;;;;;;;8.98;0.50;;;15.50;22.00;;;;;;5072625;28;20397;-62
2021/03/04 10:48:58;;;;;;;5.60;0.60;;;16.00;19.70;;;;;;5090558;28;20380;-62
2021/03/04 10:51:24;;;;;;;3.90;0.40;;;15.70;20.90;;;;;;5090663;28;20919;-62
2021/03/04 10:53:50;;;;;;;2.55;0.60;;;16.00;20.00;;;;;;5090416;28;20396;-63
2021/03/04 10:56:16;;;;;;;11.05;1.13;;;15.40;20.90;;;;;;5088987;28;20381;-62
2021/03/04 10:58:42;;;;;;;8.17;0.90;;;14.80;21.10;;;;;;5088859;28;20417;-62
2021/03/04 11:01:08;;;;;;;4.20;0.45;;;14.10;22.30;;;;;;5088381;28;20392;-62
2021/03/04 11:03:34;;;;;;;9.85;0.70;;;14.40;21.90;;;;;;5090216;28;20384;-61
2021/03/04 11:06:00;;;;;;;5.28;0.70;;;13.20;25.10;;;;;;5093342;28;20384;-61
2021/03/04 11:08:27;;;;;;;1.67;0.38;;;13.60;23.70;;;;;;5093636;28;20729;-59
2021/03/04 11:10:53;;;;;;;4.68;0.80;;;14.20;23.30;;;;;;5093673;28;20377;-62
2021/03/04 11:13:19;;;;;;;6.00;0.60;;;14.80;21.80;;;;;;5093263;28;20417;-62
2021/03/04 11:15:45;;;;;;;5.37;0.60;;;15.70;20.40;;;;;;5090786;28;20377;-61
2021/03/04 11:18:11;;;;;;;5.72;0.63;;;14.60;20.90;;;;;;5093605;28;20877;-61
2021/03/04 11:20:37;;;;;;;8.27;0.85;;;15.70;20.50;;;;;;5074233;28;20399;-61
2021/03/04 11:23:04;;;;;;;8.50;0.60;;;14.90;21.00;;;;;;5096953;28;20403;-62
2021/03/04 11:25:30;;;;;;;4.78;0.70;;;14.20;21.30;;;;;;5094188;28;20380;-62
2021/03/04 11:27:56;;;;;;;4.38;0.80;;;13.60;22.90;;;;;;5074771;28;20416;-61
2021/03/04 11:30:22;;;;;;;8.52;0.50;;;12.90;22.30;;;;;;5092853;28;20396;-62
2021/03/04 11:32:49;;;;;;;3.05;0.40;;;13.00;24.80;;;;;;5095944;28;20412;-62
2021/03/04 11:35:15;;;;;;;3.58;0.50;;;13.10;23.40;;;;;;5093966;28;20380;-62
2021/03/04 11:37:41;;;;;;;7.75;0.80;;;14.40;22.40;;;;;;5096286;28;20399;-61
2021/03/04 11:40:08;;;;;;;3.70;0.70;;;12.80;22.60;;;;;;5099728;28;20380;-62
2021/03/04 11:42:34;;;;;;;4.78;0.50;;;12.20;23.10;;;;;;5102622;28;20895;-62
2021/03/04 11:45:00;;;;;;;;;;;11.90;23.80;;;;;;5097780;28;19912;-62
2021/03/04 11:47:26;;;;;;;;;;;11.90;24.50;;;;;;5075782;28;20417;-61
2021/03/04 11:49:52;;;;;;;;;;;13.50;22.70;;;;;;5094639;28;19912;-62
2021/03/04 11:52:19;;;;;;;;;;;14.40;22.30;;;;;;5095419;28;19915;-62
2021/03/04 11:54:45;;;;;;;;;;;15.00;21.30;;;;;;5094923;28;19919;-63
2021/03/04 11:57:11;;;;;;;;;;;14.80;21.50;;;;;;5076478;28;19935;-63
2021/03/04 11:59:37;;;;;;;;;;;15.50;20.60;;;;;;5094817;28;20361;-62
2021/03/04 12:02:03;;;;;;;;;;;14.90;21.70;;;;;;5095057;28;19912;-62
2021/03/04 12:04:29;;;;;;;;;;;15.40;20.00;;;;;;5095068;28;19908;-62
2021/03/04 12:06:58;;;;;;;;;;;14.50;20.40;;;;;;5076797;28;19904;-62
2021/03/04 12:09:24;;;;;;;;;;;14.50;19.90;;;;;;5094957;28;20268;-62
2021/03/04 12:11:50;;;;;;;;;;;13.70;21.00;;;;;;5094556;28;19931;-62
2021/03/04 12:14:16;;;;;;;;;;;13.30;21.80;;;;;;5094674;28;20348;-63
2021/03/04 12:16:42;;;;;;;;;;;15.00;20.50;;;;;;5093317;28;19938;-63
2021/03/04 12:19:08;;;;;;;;;;;15.70;19.30;;;;;;5094037;28;20356;-63
2021/03/04 12:21:34;;;;;;;;;;;16.10;19.70;;;;;;5093530;28;20296;-62
2021/03/04 12:24:00;;;;;;;;;;;15.50;19.40;;;;;;5094443;28;19942;-62
2021/03/04 12:26:26;;;;;;;;;;;13.80;20.50;;;;;;5097396;28;19908;-62
2021/03/04 12:28:51;;;;;;;;;;;14.60;20.60;;;;;;5094308;28;19918;-63
2021/03/04 12:31:17;;;;;;;;;;;14.50;21.60;;;;;;5093288;28;19969;-62
2021/03/04 12:33:43;;;;;;;;;;;16.20;18.50;;;;;;5094535;28;19908;-62
2021/03/04 12:36:09;;;;;;;;;;;13.20;19.60;;;;;;5083831;28;19916;-63
2021/03/04 12:38:37;;;;;;;;;;;13.00;22.00;;;;;;5089567;28;20162;-63
2021/03/04 12:41:03;;;;;;;;;;;14.50;20.30;;;;;;5093842;28;20364;-62
2021/03/04 12:43:29;;;;;;;;;;;16.70;17.60;;;;;;5075673;28;19919;-62
2021/03/04 12:45:55;;;;;;;;;;;13.60;19.80;;;;;;5093301;28;19923;-62
2021/03/04 12:48:21;;;;;;;;;;;13.50;20.70;;;;;;5093388;28;20387;-62
2021/03/04 12:50:46;;;;;;;;;;;13.40;21.50;;;;;;5093126;28;19916;-63
2021/03/04 12:53:12;;;;;;;;;;;12.50;21.70;;;;;;5092619;28;19977;-63
2021/03/04 12:55:38;;;;;;;;;;;13.20;21.10;;;;;;5093711;28;20007;-62
2021/03/04 12:58:04;;;;;;;;;;;14.00;20.80;;;;;;5093934;28;20710;-62
2021/03/04 13:00:30;;;;;;;;;;;14.10;20.10;;;;;;5093456;28;20077;-62
2021/03/04 13:02:56;;;;;;;;;;;13.60;21.10;;;;;;5093590;28;20427;-63
2021/03/04 13:05:23;;;;;;;;;;;14.40;21.00;;;;;;5092895;28;19916;-62
2021/03/04 13:07:49;;;;;;;;;;;15.50;18.00;;;;;;5092732;28;19916;-63
2021/03/04 13:10:15;;;;;;;;;;;14.40;17.90;;;;;;5093678;28;19912;-63
2021/03/04 13:12:41;;;;;;;;;;;13.20;19.80;;;;;;5074109;28;20383;-63
2021/03/04 13:15:07;;;;;;;;;;;14.00;19.30;;;;;;5093283;28;19955;-62
2021/03/04 13:17:33;;;;;;;;;;;15.00;18.30;;;;;;5093513;28;19912;-63
2021/03/04 13:19:59;;;;;;;;;;;15.00;17.30;;;;;;5093230;28;19958;-62
2021/03/04 13:22:25;;;;;;;;;;;14.80;17.50;;;;;;5093208;28;19916;-60
2021/03/04 13:24:51;;;;;;;;;;;13.20;18.20;;;;;;5074603;28;19946;-63
2021/03/04 13:27:18;;;;;;;;;;;13.00;19.80;;;;;;5092109;28;19916;-62
2021/03/04 13:29:44;;;;;;;;;;;12.30;19.80;;;;;;5091813;28;19924;-62
2021/03/04 13:32:10;;;;;;;;;;;12.50;21.00;;;;;;5092541;28;19924;-62
2021/03/04 13:34:36;;;;;;;;;;;12.50;20.10;;;;;;5092224;28;19912;-62
2021/03/04 13:37:01;;;;;;;;;;;13.10;19.50;;;;;;5091859;28;19916;-62
2021/03/04 13:39:27;;;;;;;;;;;12.10;20.60;;;;;;5092093;28;19970;-62
2021/03/04 13:41:53;;;;;;;;;;;11.70;22.20;;;;;;5091946;28;20453;-62
2021/03/04 13:44:19;;;;;;;;;;;11.10;23.40;;;;;;5092667;28;20393;-62
2021/03/04 13:46:45;;;;;;;;;;;10.90;23.10;;;;;;5092255;28;19965;-62
2021/03/04 13:49:11;;;;;;;;;;;10.50;23.20;;;;;;5092756;28;19916;-62
2021/03/04 13:51:37;;;;;;;;;;;9.80;23.20;;;;;;5092681;28;19931;-62
2021/03/04 13:54:03;;;;;;;;;;;9.40;24.90;;;;;;5092305;28;20018;-62
2021/03/04 13:56:29;;;;;;;;;;;8.60;24.90;;;;;;5091069;28;19923;-61
2021/03/04 13:58:55;;;;;;;;;;;8.80;25.70;;;;;;5089804;28;19920;-63
2021/03/04 14:01:21;;;;;;;;;;;8.30;25.20;;;;;;5090145;28;19923;-61
2021/03/04 14:03:47;;;;;;;;;;;7.90;27.50;;;;;;5091171;28;19924;-62
2021/03/04 14:06:13;;;;;;;;;;;8.00;28.60;;;;;;5091240;28;20047;-62
2021/03/04 14:08:39;;;;;;;;;;;7.90;28.00;;;;;;5090993;28;19916;-61
2021/03/04 14:11:05;;;;;;;;;;;7.60;28.10;;;;;;5091521;28;19927;-61
2021/03/04 14:13:31;;;;;;;;;;;7.50;29.30;;;;;;5091574;28;20456;-61
2021/03/04 14:15:57;;;;;;;;;;;7.40;28.40;;;;;;5091443;28;19927;-61